This is the latest recevied weather packets stored in our database for station/object KE0LFX. If no packets are shown the sender has not sent any weather packets the latest 10 day(s).
| Time | Temp. | Humidity | Pressure | Rain* | Wind** | Luminosity | Snow |
|---|---|---|---|---|---|---|---|
| 1777765992 | 15.56° C | 34% | 1020.1 hPa | 0 mm | - | 79 W/m² | - |
| 1777765688 | 15.56° C | 33% | 1020.3 hPa | 0 mm | - | 93 W/m² | - |
| 1777765385 | 15.56° C | 34% | 1020.3 hPa | 0 mm | - | 92 W/m² | - |
| 1777765081 | 15.56° C | 35% | 1020.4 hPa | 0 mm | - | 107 W/m² | - |
| 1777764778 | 15.56° C | 34% | 1020.5 hPa | 0 mm | - | 108 W/m² | - |
| 1777764475 | 15.56° C | 35% | 1020.5 hPa | 0 mm | - | 94 W/m² | - |
| 1777764171 | 15.56° C | 35% | 1020.5 hPa | 0 mm | - | 95 W/m² | - |
| 1777763868 | 15.56° C | 35% | 1020.3 hPa | 0 mm | - | 92 W/m² | - |
| 1777763566 | 16.11° C | 36% | 1020.6 hPa | 0 mm | - | 160 W/m² | - |
| 1777763264 | 15.56° C | 35% | 1020.5 hPa | 0 mm | - | 108 W/m² | - |
| 1777762962 | 16.11° C | 34% | 1020.8 hPa | 0 mm | - | 183 W/m² | - |
| 1777762658 | 15.56° C | 35% | 1020.8 hPa | 0 mm | - | 186 W/m² | - |
| 1777762355 | 15.56° C | 35% | 1020.8 hPa | 0 mm | - | 219 W/m² | - |
| 1777762052 | 15.56° C | 35% | 1020.8 hPa | 0 mm | - | 234 W/m² | - |
| 1777761748 | 16.11° C | 34% | 1020.9 hPa | 0 mm | - | 227 W/m² | - |
| 1777761446 | 15.56° C | 34% | 1020.7 hPa | 0 mm | - | 284 W/m² | - |
| 1777761144 | 16.11° C | 34% | 1020.8 hPa | 0 mm | - | 275 W/m² | - |
| 1777760841 | 16.11° C | 35% | 1020.9 hPa | 0 mm | - | 297 W/m² | - |
| 1777760538 | 16.11° C | 35% | 1020.7 hPa | 0 mm | - | 302 W/m² | - |
| 1777760234 | 16.11° C | 34% | 1020.8 hPa | 0 mm | - | 326 W/m² | - |
| 1777759930 | 16.67° C | 33% | 1021 hPa | 0 mm | - | 346 W/m² | - |
| 1777759627 | 16.11° C | 35% | 1021 hPa | 0 mm | - | 376 W/m² | - |
| 1777759323 | 16.67° C | 33% | 1021 hPa | 0 mm | - | 390 W/m² | - |
| 1777759020 | 15.56° C | 33% | 1021 hPa | 0 mm | - | 391 W/m² | - |
| 1777758717 | 15.56° C | 33% | 1021.2 hPa | 0 mm | - | 400 W/m² | - |
* Rain latest hour (hover to see other rain measurements)
** Current wind speed in m/s (hover to see current wind gust speed)